createdAt,value
2023-02-13T00:00:43.927Z,28.76
2023-02-13T00:01:43.922Z,29.25
2023-02-13T00:02:44.013Z,30.71
2023-02-13T00:03:43.992Z,32.24
2023-02-13T06:00:27.752Z,35.38
2023-02-13T06:01:27.747Z,39.41
2023-02-13T06:02:27.767Z,40.53
2023-02-13T06:03:27.777Z,31.61
2023-02-13T06:04:27.722Z,38.07
2023-02-13T06:05:27.707Z,37.54
2023-02-13T06:06:27.698Z,38.86
2023-02-13T06:07:27.718Z,38.50
2023-02-13T06:08:27.692Z,37.86
2023-02-13T06:09:27.669Z,36.90
2023-02-13T06:10:27.675Z,39.39
2023-02-13T06:11:27.691Z,41.94
2023-02-13T06:12:27.639Z,40.11
2023-02-13T06:13:27.625Z,38.15
2023-02-13T06:14:27.628Z,38.48
2023-02-13T06:15:27.643Z,41.31
2023-02-13T06:16:27.699Z,34.87
2023-02-13T06:17:27.603Z,38.33
2023-02-13T06:18:27.593Z,38.26
2023-02-13T06:19:27.606Z,42.91
2023-02-13T06:20:27.590Z,33.67
2023-02-13T06:21:27.628Z,38.66
2023-02-13T06:22:27.561Z,41.64
2023-02-13T06:23:27.539Z,37.27
2023-02-13T06:24:27.529Z,35.73
2023-02-13T06:25:27.521Z,41.57
2023-02-13T06:26:27.514Z,40.42
2023-02-13T06:27:27.502Z,39.09
2023-02-13T06:28:27.616Z,35.54
2023-02-13T06:29:27.483Z,39.16
2023-02-13T06:30:27.498Z,37.97
2023-02-13T06:31:27.637Z,42.17
2023-02-13T06:32:27.465Z,42.18
2023-02-13T06:33:27.450Z,39.67
2023-02-13T06:34:27.440Z,42.78
2023-02-13T06:35:27.426Z,37.45
2023-02-13T06:36:27.426Z,36.44
2023-02-13T06:37:27.409Z,38.67
2023-02-13T06:38:27.410Z,42.82
2023-02-13T06:39:27.395Z,39.45
2023-02-13T06:40:27.394Z,36.98
2023-02-13T06:41:27.373Z,41.58
2023-02-13T06:42:27.368Z,39.46
2023-02-13T06:43:27.362Z,40.47
2023-02-13T06:44:27.344Z,41.49
2023-02-13T06:45:27.356Z,42.22
2023-02-13T06:46:27.381Z,44.06
2023-02-13T06:47:27.354Z,36.18
2023-02-13T06:48:27.312Z,41.20
2023-02-13T06:49:27.299Z,42.62
2023-02-13T06:50:27.292Z,42.86
2023-02-13T06:51:27.287Z,34.97
2023-02-13T06:52:27.278Z,39.56
2023-02-13T06:53:27.275Z,43.95
2023-02-13T06:54:44.807Z,43.20
2023-02-13T06:55:27.246Z,43.57
2023-02-13T06:56:27.235Z,43.99
2023-02-13T06:57:27.230Z,44.31
2023-02-13T06:58:27.217Z,44.11
2023-02-13T06:59:27.214Z,44.72
2023-02-13T07:00:27.293Z,45.27
2023-02-13T07:01:27.307Z,47.16
2023-02-13T07:02:27.273Z,43.49
2023-02-13T07:03:27.195Z,39.78
2023-02-13T07:04:27.159Z,42.27
2023-02-13T07:05:27.156Z,42.49
2023-02-13T07:06:27.147Z,43.85
2023-02-13T07:07:27.144Z,43.85
2023-02-13T07:08:27.131Z,42.12
2023-02-13T07:09:27.120Z,45.22
2023-02-13T07:10:27.108Z,42.84
2023-02-13T07:11:27.100Z,45.17
2023-02-13T07:12:27.092Z,42.31
2023-02-13T07:13:27.094Z,46.24
2023-02-13T07:14:27.072Z,46.51
2023-02-13T07:15:27.060Z,40.93
2023-02-13T07:16:27.084Z,44.03
2023-02-13T07:17:27.055Z,42.35
2023-02-13T07:18:27.042Z,41.86
2023-02-13T07:19:27.061Z,44.28
2023-02-13T07:20:27.016Z,40.23
2023-02-13T07:21:27.023Z,40.00
2023-02-13T07:22:27.007Z,43.23
2023-02-13T07:23:26.985Z,40.06
2023-02-13T07:24:26.977Z,44.41
2023-02-13T07:25:26.967Z,46.74
2023-02-13T07:26:26.956Z,43.39
2023-02-13T07:27:26.956Z,42.16
2023-02-13T07:28:27.003Z,44.64
2023-02-13T07:29:26.929Z,46.27
2023-02-13T07:30:26.948Z,45.86
2023-02-13T07:31:27.118Z,47.50
2023-02-13T07:32:26.961Z,43.19
2023-02-13T07:33:26.894Z,45.01
2023-02-13T07:34:26.884Z,46.11
2023-02-13T07:35:26.933Z,43.90
2023-02-13T07:36:26.867Z,44.15
2023-02-13T07:37:26.856Z,48.28
2023-02-13T07:38:26.856Z,45.32
2023-02-13T07:39:26.838Z,47.19
2023-02-13T07:40:26.830Z,43.96
2023-02-13T07:41:27.048Z,44.51
2023-02-13T07:42:26.813Z,46.95
2023-02-13T07:43:26.804Z,47.93
2023-02-13T07:44:26.805Z,45.29
2023-02-13T07:45:26.787Z,45.51
2023-02-13T07:46:26.828Z,48.83
2023-02-13T07:47:26.764Z,45.16
2023-02-13T07:48:26.757Z,45.70
2023-02-13T07:49:26.748Z,43.39
2023-02-13T07:50:26.742Z,44.31
2023-02-13T07:51:26.756Z,44.81
2023-02-13T07:52:26.725Z,45.53
2023-02-13T07:53:26.715Z,46.61
2023-02-13T07:54:26.703Z,42.49
2023-02-13T07:55:26.698Z,45.41
2023-02-13T07:56:26.682Z,45.95
2023-02-13T07:57:26.675Z,47.27
2023-02-13T07:58:26.682Z,45.50
2023-02-13T07:59:26.659Z,47.08
2023-02-13T08:00:26.662Z,47.46
2023-02-13T08:01:26.683Z,45.10
2023-02-13T08:02:26.651Z,46.72
2023-02-13T08:03:26.693Z,49.27
2023-02-13T08:04:26.616Z,45.67
2023-02-13T08:05:26.606Z,46.51
2023-02-13T08:07:26.726Z,43.75
2023-02-13T09:49:26.607Z,48.30
